Time;durP1;ratioP1;P1;durP2;ratioP2;P2;SDS_P1;SDS_P2;PMS_P1;PMS_P2;Temp;Humidity;BMP_temperature;BMP_pressure;BME280_temperature;BME280_humidity;BME280_pressure;Samples;Min_cycle;Max_cycle;Signal;HPM_P1;HPM_P2
2020/12/21 00:01:55;;;;;;;8.68;1.67;;;20.30;45.20;;;;;;5059794;28;20036;-75
2020/12/21 00:04:20;;;;;;;7.85;1.58;;;20.30;45.20;;;;;;5054126;28;20381;-75
2020/12/21 00:06:56;;;;;;;6.97;1.40;;;20.30;45.20;;;;;;5043955;28;20094;-75
2020/12/21 00:09:21;;;;;;;3.92;1.38;;;20.30;45.20;;;;;;5025888;28;20049;-74
2020/12/21 00:11:47;;;;;;;3.35;1.15;;;20.30;45.20;;;;;;5035629;28;20114;-75
2020/12/21 00:14:13;;;;;;;5.57;1.48;;;20.30;45.20;;;;;;5033469;28;20086;-74
2020/12/21 00:16:46;;;;;;;6.65;1.98;;;20.30;45.20;;;;;;5044056;28;20025;-75
2020/12/21 00:19:24;;;;;;;4.07;1.50;;;20.30;45.10;;;;;;5010398;28;20124;-76
2020/12/21 00:21:51;;;;;;;7.30;2.00;;;20.30;45.10;;;;;;5036104;28;20029;-76
2020/12/21 00:24:16;;;;;;;11.75;1.55;;;20.30;45.10;;;;;;5054830;28;20775;-76
2020/12/21 00:26:46;;;;;;;9.32;1.83;;;20.30;45.10;;;;;;5022368;28;20041;-78
2020/12/21 00:29:12;;;;;;;5.43;1.55;;;20.30;45.00;;;;;;5045762;28;20017;-77
2020/12/21 00:31:37;;;;;;;5.20;1.65;;;20.30;45.00;;;;;;5025009;28;20044;-76
2020/12/21 00:34:03;;;;;;;4.30;1.63;;;20.30;45.00;;;;;;5037770;28;20123;-76
2020/12/21 00:36:29;;;;;;;0.82;0.20;;;20.30;45.00;;;;;;5035550;28;20048;-75
2020/12/21 00:38:55;;;;;;;6.65;1.77;;;20.30;45.00;;;;;;5039942;28;20009;-76
2020/12/21 00:41:22;;;;;;;7.00;1.33;;;20.30;45.00;;;;;;5052807;28;20048;-76
2020/12/21 00:43:47;;;;;;;5.90;1.65;;;20.30;45.00;;;;;;5016946;28;20040;-78
2020/12/21 00:46:14;;;;;;;6.05;1.17;;;20.30;45.00;;;;;;5045945;28;20438;-76
2020/12/21 00:48:41;;;;;;;4.88;1.05;;;20.20;44.90;;;;;;5035620;28;20072;-76
2020/12/21 00:51:06;;;;;;;4.05;1.20;;;20.20;44.90;;;;;;5028598;28;20033;-76
2020/12/21 00:53:44;;;;;;;4.03;1.23;;;20.20;45.60;;;;;;5035065;28;20029;-76
2020/12/21 00:56:10;;;;;;;7.57;1.90;;;20.20;44.90;;;;;;5037020;28;20025;-76
2020/12/21 00:58:38;;;;;;;11.82;2.05;;;20.20;44.90;;;;;;5014533;28;20448;-76
2020/12/21 01:01:06;;;;;;;3.78;1.30;;;20.10;44.80;;;;;;5039053;28;20036;-76
2020/12/21 01:03:32;;;;;;;3.13;0.80;;;20.20;44.90;;;;;;5053217;28;20507;-76
2020/12/21 01:05:58;;;;;;;4.18;1.45;;;20.20;44.90;;;;;;5052609;28;20029;-76
2020/12/21 01:08:23;;;;;;;5.25;1.30;;;20.20;44.90;;;;;;5055719;28;20033;-76
2020/12/21 01:10:49;;;;;;;5.25;1.73;;;20.10;44.90;;;;;;5019049;28;20061;-76
2020/12/21 01:13:15;;;;;;;5.68;1.63;;;20.10;45.00;;;;;;5043366;28;20029;-76
2020/12/21 01:15:41;;;;;;;2.25;0.68;;;20.10;45.00;;;;;;5040850;28;20510;-76
2020/12/21 01:18:07;;;;;;;2.47;0.65;;;20.10;45.00;;;;;;5025720;28;20041;-76
2020/12/21 01:20:32;;;;;;;4.35;0.60;;;20.10;44.90;;;;;;5025374;28;20524;-76
2020/12/21 01:22:58;;;;;;;1.20;0.65;;;20.10;44.80;;;;;;5009286;28;20515;-76
2020/12/21 01:25:23;;;;;;;5.90;1.35;;;20.10;44.90;;;;;;5052865;28;20029;-76
2020/12/21 01:27:49;;;;;;;2.10;0.85;;;20.00;44.90;;;;;;5035702;28;20033;-76
2020/12/21 01:30:15;;;;;;;2.03;0.80;;;20.00;44.90;;;;;;5025256;28;20030;-76
2020/12/21 01:32:40;;;;;;;6.15;1.65;;;20.00;44.90;;;;;;5036895;28;20029;-76
2020/12/21 01:35:06;;;;;;;6.57;1.35;;;20.00;44.90;;;;;;5036419;28;20582;-76
2020/12/21 01:37:31;;;;;;;2.97;0.98;;;20.00;45.00;;;;;;5033956;28;20021;-76
2020/12/21 01:39:57;;;;;;;3.65;0.88;;;20.00;45.00;;;;;;5036691;28;20103;-76
2020/12/21 01:42:22;;;;;;;5.78;1.08;;;20.00;45.00;;;;;;5041318;28;20488;-76
2020/12/21 01:44:48;;;;;;;2.58;0.85;;;20.00;45.00;;;;;;5047544;28;20028;-76
2020/12/21 01:47:15;;;;;;;5.00;1.05;;;20.00;45.00;;;;;;5034427;28;20024;-77
2020/12/21 01:49:41;;;;;;;4.35;0.57;;;19.90;45.00;;;;;;5051953;28;20155;-76
2020/12/21 01:52:06;;;;;;;3.90;1.02;;;19.90;45.00;;;;;;5047459;28;20111;-76
2020/12/21 01:54:32;;;;;;;3.13;0.60;;;19.90;44.90;;;;;;5049116;28;20489;-76
2020/12/21 01:56:58;;;;;;;4.63;0.70;;;19.90;45.00;;;;;;5029179;28;20036;-76
2020/12/21 01:59:33;;;;;;;5.28;1.30;;;19.90;44.90;;;;;;5052013;28;20025;-76
2020/12/21 02:01:58;;;;;;;4.50;1.33;;;19.90;45.70;;;;;;5051915;28;20096;-76
2020/12/21 02:07:49;;;;;;;4.20;1.33;;;19.90;45.10;;;;;;5032625;28;20053;-76
2020/12/21 02:10:14;;;;;;;2.03;0.93;;;19.90;45.00;;;;;;5051260;28;20025;-80
2020/12/21 02:12:40;;;;;;;0.55;0.45;;;19.90;45.00;;;;;;5033758;28;20428;-77
2020/12/21 02:15:06;;;;;;;5.45;1.10;;;19.90;44.90;;;;;;5034664;28;20075;-77
2020/12/21 02:17:31;;;;;;;2.40;1.20;;;19.90;44.90;;;;;;5039200;28;20059;-78
2020/12/21 02:19:57;;;;;;;3.03;0.70;;;19.90;44.90;;;;;;5021133;28;20036;-78
2020/12/21 02:22:25;;;;;;;2.30;0.68;;;19.90;44.90;;;;;;5048276;28;20059;-78
2020/12/21 02:24:51;;;;;;;4.80;0.75;;;19.90;44.90;;;;;;5041675;28;20040;-78
2020/12/21 02:27:16;;;;;;;3.30;0.52;;;19.90;44.90;;;;;;5042321;28;20025;-78
2020/12/21 02:29:42;;;;;;;2.03;0.65;;;19.90;44.90;;;;;;5022314;28;20500;-78
2020/12/21 02:32:08;;;;;;;3.45;0.82;;;19.90;44.90;;;;;;5018769;28;20370;-78
2020/12/21 02:34:33;;;;;;;2.65;0.85;;;19.90;44.90;;;;;;5034251;28;20156;-77
2020/12/21 02:36:59;;;;;;;3.58;0.98;;;19.80;44.80;;;;;;5044683;28;20095;-77
2020/12/21 02:39:24;;;;;;;2.22;0.57;;;19.80;44.70;;;;;;5043939;28;20043;-78
2020/12/21 02:41:51;;;;;;;5.00;1.27;;;19.80;44.80;;;;;;5037865;28;20029;-77
2020/12/21 02:44:16;;;;;;;5.57;0.65;;;19.80;44.80;;;;;;5054098;28;20460;-77
2020/12/21 02:46:43;;;;;;;4.70;1.30;;;19.80;44.80;;;;;;5061903;28;20031;-78
2020/12/21 02:49:09;;;;;;;0.47;0.32;;;19.80;44.80;;;;;;5062745;28;20044;-77
2020/12/21 02:51:34;;;;;;;2.95;1.50;;;19.80;44.80;;;;;;5071525;28;20021;-76
2020/12/21 02:54:00;;;;;;;2.97;1.30;;;19.80;44.80;;;;;;5057866;28;20381;-78
2020/12/21 02:56:25;;;;;;;1.67;0.40;;;19.80;44.80;;;;;;5047392;28;20032;-79
2020/12/21 02:58:51;;;;;;;4.32;1.10;;;19.70;44.70;;;;;;5041834;28;20046;-79
2020/12/21 03:01:16;;;;;;;1.42;0.20;;;19.70;44.80;;;;;;5042905;28;20071;-79
2020/12/21 03:03:42;;;;;;;5.38;1.10;;;19.70;44.80;;;;;;5074058;28;20530;-80
2020/12/21 03:06:08;;;;;;;3.67;0.98;;;19.70;45.50;;;;;;5073903;28;20039;-79
2020/12/21 03:08:33;;;;;;;3.55;1.58;;;19.70;44.90;;;;;;5060790;28;20446;-78
2020/12/21 03:10:59;;;;;;;1.70;0.40;;;19.70;45.00;;;;;;5074243;28;20047;-78
2020/12/21 03:13:24;;;;;;;2.10;1.00;;;19.70;44.90;;;;;;5064909;28;20041;-78
2020/12/21 03:15:50;;;;;;;3.58;0.98;;;19.70;44.90;;;;;;5074941;28;20059;-79
2020/12/21 03:18:15;;;;;;;2.08;0.80;;;19.70;44.90;;;;;;5069030;28;20048;-80
2020/12/21 03:20:41;;;;;;;4.13;0.85;;;19.70;44.90;;;;;;5057054;28;20041;-81
2020/12/21 03:23:07;;;;;;;1.67;0.45;;;19.60;44.80;;;;;;5073102;28;20060;-80
2020/12/21 03:25:32;;;;;;;0.73;0.22;;;19.60;44.80;;;;;;5067967;28;20106;-79
2020/12/21 03:27:58;;;;;;;5.30;0.90;;;19.60;44.80;;;;;;5055989;28;20029;-78
2020/12/21 03:30:23;;;;;;;1.70;0.50;;;19.60;44.80;;;;;;5061684;28;20029;-79
2020/12/21 03:32:49;;;;;;;1.95;0.70;;;19.60;44.90;;;;;;5055651;28;20404;-79
2020/12/21 03:39:18;;;;;;;1.00;0.50;;;19.60;44.80;;;;;;5039700;28;20048;-79
2020/12/21 03:41:44;;;;;;;3.80;1.15;;;19.50;44.80;;;;;;5053283;28;20413;-79
2020/12/21 03:44:09;;;;;;;3.55;0.98;;;19.60;44.80;;;;;;5070759;28;20040;-79
2020/12/21 03:46:35;;;;;;;3.30;0.95;;;19.60;44.80;;;;;;5057178;28;20028;-79
2020/12/21 03:49:01;;;;;;;4.28;0.65;;;19.50;44.90;;;;;;5039149;28;20129;-79
2020/12/21 03:51:26;;;;;;;6.00;0.50;;;19.50;44.80;;;;;;5025762;28;20049;-79
2020/12/21 03:53:52;;;;;;;3.47;1.10;;;19.50;44.80;;;;;;5057651;28;20099;-79
2020/12/21 03:56:17;;;;;;;5.53;1.38;;;19.60;44.80;;;;;;5053215;28;20024;-79
2020/12/21 03:58:43;;;;;;;3.53;0.47;;;19.50;44.70;;;;;;5057572;28;20075;-80
2020/12/21 04:01:08;;;;;;;1.60;0.40;;;19.60;44.70;;;;;;5057163;28;20032;-80
2020/12/21 04:03:34;;;;;;;1.60;0.60;;;19.50;44.70;;;;;;5073164;28;20083;-79
2020/12/21 04:05:59;;;;;;;0.57;0.40;;;19.50;44.70;;;;;;5070281;28;20075;-79
2020/12/21 04:08:25;;;;;;;1.02;0.50;;;19.50;44.60;;;;;;5071418;28;20036;-80
2020/12/21 04:10:50;;;;;;;0.95;0.52;;;19.50;44.60;;;;;;5063818;28;20506;-79
2020/12/21 04:13:17;;;;;;;0.20;0.20;;;19.50;44.60;;;;;;5049321;28;20511;-78
2020/12/21 04:15:43;;;;;;;2.35;0.20;;;19.50;44.60;;;;;;5066785;28;20032;-78
2020/12/21 04:18:08;;;;;;;2.55;0.80;;;19.50;44.30;;;;;;5057381;28;20022;-77
2020/12/21 04:20:34;;;;;;;4.28;1.00;;;19.50;44.60;;;;;;5036007;28;20041;-77
2020/12/21 04:23:02;;;;;;;2.10;0.77;;;19.50;44.60;;;;;;5060642;28;20032;-79
2020/12/21 04:28:50;;;;;;;3.53;0.82;;;19.50;44.60;;;;;;5067020;28;20030;-79
2020/12/21 04:31:15;;;;;;;1.58;0.70;;;19.40;44.50;;;;;;5040407;28;20115;-79
2020/12/21 04:33:41;;;;;;;1.85;0.85;;;19.40;44.50;;;;;;5072234;28;20043;-79
2020/12/21 04:36:10;;;;;;;2.42;1.20;;;19.40;44.60;;;;;;5073363;28;20021;-79
2020/12/21 04:38:39;;;;;;;1.95;0.30;;;19.40;44.60;;;;;;5019831;28;20579;-79
2020/12/21 04:41:05;;;;;;;5.00;0.82;;;19.40;44.60;;;;;;5048612;28;20020;-78
2020/12/21 04:43:33;;;;;;;0.40;0.30;;;19.40;44.70;;;;;;5055811;28;20035;-78
2020/12/21 04:46:06;;;;;;;0.55;0.38;;;19.40;44.40;;;;;;5055479;28;20097;-78
2020/12/21 04:48:39;;;;;;;0.20;0.20;;;19.40;44.50;;;;;;5038954;28;20456;-79
2020/12/21 04:51:05;;;;;;;0.55;0.40;;;19.40;45.20;;;;;;5055516;28;20506;-77
2020/12/21 04:53:31;;;;;;;6.65;1.58;;;19.40;44.40;;;;;;5040794;28;20069;-77
2020/12/21 04:55:56;;;;;;;0.32;0.22;;;19.30;44.20;;;;;;5063951;28;20045;-77
2020/12/21 04:58:22;;;;;;;3.25;1.00;;;19.30;44.20;;;;;;5053973;28;20048;-77
2020/12/21 05:00:48;;;;;;;1.25;0.45;;;19.30;44.50;;;;;;5056812;28;20021;-78
2020/12/21 05:03:15;;;;;;;0.88;0.57;;;19.30;44.60;;;;;;5032558;28;20071;-77
2020/12/21 05:05:42;;;;;;;1.85;0.60;;;19.30;44.60;;;;;;5071712;28;20039;-77
2020/12/21 05:08:17;;;;;;;0.60;0.55;;;19.30;44.70;;;;;;5054401;28;20036;-77
2020/12/21 05:10:44;;;;;;;3.13;0.67;;;19.30;44.70;;;;;;5061241;28;20146;-77
2020/12/21 05:13:10;;;;;;;2.33;0.40;;;19.40;44.80;;;;;;5056197;28;20119;-76
2020/12/21 05:15:36;;;;;;;1.40;0.47;;;19.40;44.70;;;;;;5055369;28;20106;-76
2020/12/21 05:18:08;;;;;;;3.78;0.70;;;19.50;44.70;;;;;;5068817;28;20055;-75
2020/12/21 05:20:40;;;;;;;6.25;0.55;;;19.50;44.60;;;;;;5069428;28;20043;-75
2020/12/21 05:23:16;;;;;;;0.73;0.50;;;19.60;44.70;;;;;;5049669;28;20021;-76
2020/12/21 05:25:44;;;;;;;0.40;0.40;;;19.60;44.60;;;;;;5071225;28;20029;-75
2020/12/21 05:28:11;;;;;;;1.90;0.50;;;19.60;44.70;;;;;;5047610;28;20112;-77
2020/12/21 05:30:36;;;;;;;0.82;0.52;;;19.70;44.60;;;;;;5038292;28;20047;-77
2020/12/21 05:33:05;;;;;;;0.85;0.52;;;19.70;44.60;;;;;;5050934;28;20542;-76
2020/12/21 05:35:31;;;;;;;0.98;0.63;;;19.70;44.50;;;;;;5038578;28;20021;-77
2020/12/21 05:37:56;;;;;;;2.08;0.50;;;19.80;44.50;;;;;;5051878;28;20043;-77
2020/12/21 05:40:25;;;;;;;2.30;0.52;;;19.80;44.40;;;;;;5038007;28;20366;-78
2020/12/21 05:42:50;;;;;;;2.13;0.80;;;19.90;44.40;;;;;;5052889;28;20103;-78
2020/12/21 05:45:16;;;;;;;0.98;0.60;;;19.90;44.40;;;;;;5032298;28;20068;-78
2020/12/21 05:47:41;;;;;;;0.88;0.60;;;19.90;44.40;;;;;;5047272;28;20037;-78
2020/12/21 05:50:07;;;;;;;1.10;0.82;;;20.00;44.40;;;;;;5004559;28;20041;-78
2020/12/21 05:52:34;;;;;;;0.80;0.35;;;20.00;44.40;;;;;;5039336;28;20065;-78
2020/12/21 05:55:17;;;;;;;2.25;0.65;;;20.00;44.40;;;;;;5020070;28;20504;-78
2020/12/21 05:57:43;;;;;;;1.40;0.70;;;20.00;44.40;;;;;;5020548;28;20024;-78
2020/12/21 06:00:10;;;;;;;1.33;0.55;;;20.10;44.30;;;;;;5034308;28;20034;-78
2020/12/21 06:02:36;;;;;;;0.73;0.30;;;20.10;44.30;;;;;;5013364;28;20025;-78
2020/12/21 06:05:06;;;;;;;3.67;0.60;;;20.10;44.30;;;;;;5031448;28;20086;-78
2020/12/21 06:07:32;;;;;;;0.60;0.60;;;20.10;44.20;;;;;;5014893;28;20111;-78
2020/12/21 06:09:59;;;;;;;0.90;0.50;;;20.10;44.90;;;;;;5017814;28;20021;-77
2020/12/21 06:12:26;;;;;;;4.90;0.85;;;20.10;44.20;;;;;;5017270;28;20043;-77
2020/12/21 06:14:53;;;;;;;1.10;0.30;;;20.10;44.20;;;;;;5011121;28;20032;-78
2020/12/21 06:17:19;;;;;;;0.75;0.60;;;20.10;44.20;;;;;;5029277;28;20033;-76
2020/12/21 06:19:44;;;;;;;3.65;0.82;;;20.10;44.30;;;;;;5017405;28;20116;-76
2020/12/21 06:22:10;;;;;;;3.35;0.60;;;20.10;44.30;;;;;;5000534;28;20497;-76
2020/12/21 06:24:39;;;;;;;1.00;0.57;;;20.20;44.30;;;;;;5051902;28;20485;-79
2020/12/21 06:27:35;;;;;;;2.47;0.50;;;20.10;44.30;;;;;;5018611;28;20382;-79
2020/12/21 06:30:02;;;;;;;1.58;0.63;;;20.20;44.40;;;;;;5033781;28;20048;-77
2020/12/21 06:32:31;;;;;;;0.63;0.50;;;20.20;44.40;;;;;;5054741;28;20519;-78
2020/12/21 06:34:57;;;;;;;1.10;0.75;;;20.20;44.40;;;;;;5055798;28;20040;-79
2020/12/21 06:37:22;;;;;;;2.28;0.88;;;20.20;44.30;;;;;;5037701;28;20029;-79
2020/12/21 06:39:59;;;;;;;0.88;0.50;;;20.20;44.30;;;;;;5037421;28;20045;-79
2020/12/21 06:42:27;;;;;;;1.25;0.65;;;20.20;44.40;;;;;;5037639;28;20052;-77
2020/12/21 06:44:57;;;;;;;2.17;0.70;;;20.20;44.40;;;;;;5034376;28;20463;-78
2020/12/21 06:47:23;;;;;;;2.17;0.52;;;20.20;44.40;;;;;;5042906;28;20036;-77
2020/12/21 06:49:49;;;;;;;2.45;0.43;;;20.20;44.50;;;;;;5036818;28;20120;-77
2020/12/21 06:52:14;;;;;;;2.53;0.50;;;20.20;44.50;;;;;;5037311;28;20096;-78
2020/12/21 06:54:40;;;;;;;1.65;0.50;;;20.20;44.50;;;;;;5017547;28;20430;-78
2020/12/21 06:57:05;;;;;;;1.00;0.43;;;20.20;44.60;;;;;;5021250;28;20508;-78
2020/12/21 06:59:31;;;;;;;2.17;0.40;;;20.20;44.70;;;;;;5059743;28;20048;-78
2020/12/21 07:01:57;;;;;;;0.85;0.65;;;20.20;44.60;;;;;;5062228;28;20059;-78
2020/12/21 07:04:30;;;;;;;0.85;0.40;;;20.20;44.60;;;;;;5048388;28;20125;-78
2020/12/21 07:06:56;;;;;;;1.20;0.55;;;20.20;44.60;;;;;;5040243;28;20035;-78
2020/12/21 07:09:26;;;;;;;2.45;0.40;;;20.20;44.60;;;;;;5038672;28;20048;-78
2020/12/21 07:11:59;;;;;;;1.55;0.50;;;20.20;44.70;;;;;;5031091;28;20099;-76
2020/12/21 07:14:25;;;;;;;1.02;0.52;;;20.20;44.70;;;;;;5044360;28;20021;-76
2020/12/21 07:17:20;;;;;;;1.65;0.63;;;20.20;44.70;;;;;;5042930;28;20027;-76
2020/12/21 07:19:47;;;;;;;1.17;0.50;;;20.20;44.70;;;;;;4974743;28;20027;-76
2020/12/21 07:22:30;;;;;;;1.48;0.52;;;20.20;44.70;;;;;;4969474;28;20046;-76
2020/12/21 07:24:56;;;;;;;2.22;0.47;;;20.20;44.80;;;;;;4986398;28;20039;-76
2020/12/21 07:27:22;;;;;;;1.55;0.30;;;20.30;44.70;;;;;;4975333;28;20391;-77
2020/12/21 07:29:50;;;;;;;0.50;0.50;;;20.30;44.70;;;;;;4975409;28;20045;-77
2020/12/21 07:32:15;;;;;;;0.85;0.40;;;20.30;44.60;;;;;;4989212;28;20515;-77
2020/12/21 07:34:41;;;;;;;0.75;0.55;;;20.30;44.60;;;;;;4970395;28;20173;-75
2020/12/21 07:37:09;;;;;;;2.83;0.50;;;20.30;44.70;;;;;;4991533;28;20101;-78
2020/12/21 07:39:35;;;;;;;1.00;0.40;;;20.30;44.70;;;;;;4973814;28;20046;-77
2020/12/21 07:42:04;;;;;;;0.55;0.28;;;20.30;44.70;;;;;;4968658;28;20057;-76
2020/12/21 07:44:32;;;;;;;1.48;0.40;;;20.30;44.70;;;;;;4973403;28;20034;-74
2020/12/21 07:47:01;;;;;;;0.50;0.22;;;20.40;45.40;;;;;;4968747;28;20039;-75
2020/12/21 07:49:51;;;;;;;0.60;0.50;;;20.30;44.80;;;;;;4972088;28;20057;-73
2020/12/21 07:52:23;;;;;;;0.43;0.30;;;20.30;44.90;;;;;;4965008;28;20066;-74
2020/12/21 07:54:49;;;;;;;1.05;0.22;;;20.30;45.00;;;;;;4962927;28;20158;-76
2020/12/21 07:57:17;;;;;;;1.40;0.50;;;20.40;45.00;;;;;;5038912;28;20107;-77
2020/12/21 07:59:42;;;;;;;1.35;0.52;;;20.40;45.00;;;;;;5040536;28;20373;-76
2020/12/21 08:02:09;;;;;;;0.40;0.40;;;20.40;45.00;;;;;;5057478;28;20155;-75
2020/12/21 08:04:34;;;;;;;3.53;0.80;;;20.40;45.00;;;;;;5031943;28;20120;-76
2020/12/21 08:07:07;;;;;;;0.95;0.52;;;20.40;45.10;;;;;;5024770;28;20100;-76
2020/12/21 08:09:32;;;;;;;1.00;0.40;;;20.40;45.10;;;;;;5026930;28;20527;-76
2020/12/21 08:11:59;;;;;;;1.02;0.43;;;20.40;45.10;;;;;;5022336;28;20029;-76
2020/12/21 08:14:24;;;;;;;0.77;0.30;;;20.40;45.10;;;;;;5023667;28;20021;-76
2020/12/21 08:17:12;;;;;;;1.38;0.50;;;20.40;45.70;;;;;;5046242;28;20025;-76
2020/12/21 08:19:51;;;;;;;0.47;0.43;;;20.40;45.10;;;;;;5051746;28;20065;-76
2020/12/21 08:22:26;;;;;;;1.35;0.50;;;20.40;45.10;;;;;;5016848;28;20064;-76
2020/12/21 08:25:11;;;;;;;1.17;0.30;;;20.40;45.00;;;;;;5016500;28;20442;-74
2020/12/21 08:27:50;;;;;;;1.80;0.40;;;20.30;45.00;;;;;;5049875;28;20033;-71
2020/12/21 08:30:23;;;;;;;1.23;0.40;;;20.30;45.00;;;;;;5051786;28;20439;-73
2020/12/21 08:32:50;;;;;;;1.10;0.50;;;20.30;45.00;;;;;;5045085;28;20039;-73
2020/12/21 08:35:23;;;;;;;0.80;0.40;;;20.30;45.10;;;;;;5057933;28;20027;-72
2020/12/21 08:37:51;;;;;;;1.65;0.63;;;20.30;45.10;;;;;;5042600;28;20064;-71
2020/12/21 08:40:19;;;;;;;3.22;0.32;;;20.20;45.00;;;;;;5052956;28;20074;-72
2020/12/21 08:42:45;;;;;;;3.85;0.60;;;20.20;45.10;;;;;;5054655;28;20400;-72
2020/12/21 08:45:21;;;;;;;1.40;0.50;;;20.20;45.20;;;;;;5027844;28;20048;-73
2020/12/21 08:47:47;;;;;;;2.83;0.77;;;20.20;45.20;;;;;;5033246;28;20024;-77
2020/12/21 08:50:13;;;;;;;3.58;1.02;;;20.20;45.40;;;;;;5016894;28;20039;-82
2020/12/21 08:52:38;;;;;;;3.58;1.25;;;20.20;45.40;;;;;;5038803;28;20045;-72
2020/12/21 08:55:06;;;;;;;3.88;1.80;;;20.20;45.50;;;;;;5049244;28;20067;-82
2020/12/21 08:57:34;;;;;;;2.10;1.08;;;20.30;45.60;;;;;;5040255;28;20416;-76
2020/12/21 09:00:00;;;;;;;3.03;0.90;;;20.30;45.50;;;;;;5019350;28;20104;-77
2020/12/21 09:02:25;;;;;;;1.98;1.13;;;20.30;45.50;;;;;;5068114;28;20105;-78
2020/12/21 09:04:51;;;;;;;2.10;1.13;;;20.40;45.50;;;;;;5064515;28;20029;-73
2020/12/21 09:07:17;;;;;;;4.35;1.13;;;20.40;45.60;;;;;;5034391;28;20074;-73
2020/12/21 09:10:07;;;;;;;5.03;1.17;;;20.40;45.50;;;;;;5040482;28;20565;-72
2020/12/21 09:12:35;;;;;;;6.18;1.40;;;20.40;45.50;;;;;;5048444;28;20032;-72
2020/12/21 09:15:02;;;;;;;3.10;1.00;;;20.40;45.40;;;;;;5041096;28;20068;-71
2020/12/21 09:17:27;;;;;;;2.42;1.23;;;20.40;45.40;;;;;;5024470;28;20037;-71
2020/12/21 09:19:53;;;;;;;3.65;1.00;;;20.40;45.40;;;;;;5049169;28;20385;-71
2020/12/21 09:22:25;;;;;;;1.15;0.80;;;20.40;45.30;;;;;;5016295;28;20064;-71
2020/12/21 09:24:54;;;;;;;1.23;0.68;;;20.40;45.30;;;;;;5033677;28;20026;-72
2020/12/21 09:27:19;;;;;;;2.97;0.98;;;20.40;45.10;;;;;;5068831;28;20025;-71
2020/12/21 09:29:45;;;;;;;0.90;0.65;;;20.40;45.00;;;;;;5061600;28;20100;-71
2020/12/21 09:32:10;;;;;;;1.63;0.63;;;20.40;44.90;;;;;;5049870;28;20024;-73
2020/12/21 09:34:36;;;;;;;1.42;0.40;;;20.40;44.80;;;;;;5029012;28;20075;-71
2020/12/21 09:37:02;;;;;;;0.85;0.60;;;20.50;44.80;;;;;;5022241;28;20021;-72
2020/12/21 09:43:06;;;;;;;0.80;0.30;;;20.50;44.60;;;;;;5053366;28;20040;-71
2020/12/21 09:45:32;;;;;;;0.47;0.40;;;20.40;44.50;;;;;;5038051;28;20032;-72
2020/12/21 09:47:57;;;;;;;1.77;0.60;;;20.40;44.50;;;;;;5053728;28;20025;-71
2020/12/21 09:50:23;;;;;;;1.13;0.50;;;20.30;44.40;;;;;;5034099;28;20118;-73
2020/12/21 09:52:49;;;;;;;0.77;0.60;;;20.30;44.30;;;;;;5032330;28;20072;-74
2020/12/21 09:58:36;;;;;;;0.40;0.20;;;20.30;44.40;;;;;;5056642;28;20396;-74
2020/12/21 10:01:02;;;;;;;1.02;0.45;;;20.30;44.30;;;;;;5033069;28;20026;-74
2020/12/21 10:03:27;;;;;;;0.40;0.40;;;20.30;44.40;;;;;;5012444;28;20130;-75
2020/12/21 10:05:53;;;;;;;0.40;0.30;;;20.30;44.40;;;;;;5050206;28;20032;-72
2020/12/21 10:08:18;;;;;;;0.28;0.20;;;20.40;44.40;;;;;;5048388;28;20029;-72
2020/12/21 10:10:48;;;;;;;0.63;0.13;;;20.40;44.30;;;;;;5070600;28;20029;-72
2020/12/21 10:13:13;;;;;;;0.70;0.30;;;20.40;44.30;;;;;;5029176;28;20048;-72
2020/12/21 10:15:39;;;;;;;0.95;0.30;;;20.30;44.20;;;;;;5009558;28;20401;-74
2020/12/21 10:18:04;;;;;;;1.30;0.22;;;20.30;44.10;;;;;;5042979;28;20028;-72
2020/12/21 10:20:30;;;;;;;0.10;0.10;;;20.30;44.30;;;;;;5044846;28;20453;-72
2020/12/21 10:22:55;;;;;;;0.28;0.28;;;20.30;44.10;;;;;;5036428;28;20037;-72
2020/12/21 10:25:21;;;;;;;0.20;0.20;;;20.30;44.10;;;;;;5060516;28;20035;-72
2020/12/21 10:27:47;;;;;;;0.30;0.30;;;20.30;44.30;;;;;;5033660;28;20501;-72
2020/12/21 10:30:12;;;;;;;1.48;0.50;;;20.30;44.10;;;;;;5032138;28;20025;-72
2020/12/21 10:32:38;;;;;;;0.20;0.10;;;20.30;44.10;;;;;;5032673;28;20033;-71
2020/12/21 10:35:03;;;;;;;2.10;0.20;;;20.30;44.10;;;;;;5049129;28;20021;-72
2020/12/21 10:37:29;;;;;;;0.50;0.50;;;20.30;44.20;;;;;;5005496;28;20109;-72
2020/12/21 10:39:54;;;;;;;0.20;0.20;;;20.30;43.90;;;;;;5075351;28;20021;-72
2020/12/21 10:42:20;;;;;;;0.40;0.30;;;20.20;43.80;;;;;;5058761;28;20561;-72
2020/12/21 10:44:46;;;;;;;0.55;0.35;;;20.10;43.70;;;;;;5058602;28;20021;-72
2020/12/21 10:47:11;;;;;;;0.45;0.20;;;20.10;43.70;;;;;;5065906;28;20104;-72
2020/12/21 10:49:37;;;;;;;0.50;0.30;;;20.10;44.00;;;;;;5032834;28;20385;-71
2020/12/21 10:52:02;;;;;;;2.35;0.40;;;20.00;43.70;;;;;;5054583;28;20032;-71
2020/12/21 10:54:28;;;;;;;0.75;0.30;;;20.00;43.70;;;;;;5044460;28;20033;-71
2020/12/21 10:57:05;;;;;;;0.70;0.20;;;20.00;43.90;;;;;;5022089;28;20029;-71
2020/12/21 10:59:34;;;;;;;0.70;0.30;;;19.90;43.90;;;;;;5055672;28;20508;-73
2020/12/21 11:01:59;;;;;;;1.90;0.32;;;19.90;43.90;;;;;;5033566;28;20029;-71
2020/12/21 11:04:25;;;;;;;1.05;0.38;;;19.90;44.00;;;;;;5050061;28;20035;-72
2020/12/21 11:06:50;;;;;;;0.30;0.30;;;19.90;44.00;;;;;;5024392;28;20037;-72
2020/12/21 11:09:16;;;;;;;0.45;0.32;;;19.80;43.80;;;;;;5041974;28;20036;-71
2020/12/21 11:11:41;;;;;;;0.75;0.40;;;19.80;43.80;;;;;;5040991;28;20029;-71
2020/12/21 11:17:48;;;;;;;0.38;0.08;;;19.70;43.90;;;;;;5043772;28;20036;-70
2020/12/21 11:20:13;;;;;;;0.40;0.30;;;19.70;43.90;;;;;;5041523;28;20028;-70
2020/12/21 11:22:39;;;;;;;1.27;0.20;;;19.70;44.00;;;;;;5056839;28;20417;-71
2020/12/21 11:25:04;;;;;;;1.20;0.20;;;19.70;43.90;;;;;;5069438;28;20076;-70
2020/12/21 11:27:30;;;;;;;0.10;0.10;;;19.70;44.00;;;;;;5058015;28;20530;-74
2020/12/21 11:29:55;;;;;;;2.92;0.20;;;19.60;44.10;;;;;;5056846;28;20036;-74
2020/12/21 11:32:22;;;;;;;0.80;0.30;;;19.60;44.00;;;;;;5083937;28;20033;-73
2020/12/21 11:34:48;;;;;;;1.00;0.20;;;19.60;44.20;;;;;;5035351;28;20039;-73
2020/12/21 11:37:13;;;;;;;0.20;0.13;;;19.60;44.00;;;;;;5053952;28;20504;-75
2020/12/21 11:39:39;;;;;;;1.00;0.30;;;19.60;44.00;;;;;;5059826;28;20049;-73
2020/12/21 11:42:07;;;;;;;1.85;0.10;;;19.60;44.10;;;;;;5060299;28;20047;-73
2020/12/21 11:44:36;;;;;;;0.68;0.17;;;19.60;44.20;;;;;;5048306;28;20060;-74
2020/12/21 11:47:08;;;;;;;0.40;0.25;;;19.60;44.20;;;;;;5032597;28;20045;-74
2020/12/21 11:49:33;;;;;;;1.80;0.20;;;19.60;44.30;;;;;;5042391;28;20032;-73
2020/12/21 11:51:59;;;;;;;0.35;0.20;;;19.60;44.20;;;;;;5021673;28;20033;-74
2020/12/21 11:54:39;;;;;;;0.28;0.13;;;19.60;44.30;;;;;;5053414;28;20107;-74
2020/12/21 11:57:05;;;;;;;0.95;0.30;;;19.60;44.10;;;;;;5065203;28;20461;-75
2020/12/21 11:59:31;;;;;;;0.80;0.30;;;19.60;44.20;;;;;;5056069;28;20025;-73
2020/12/21 12:01:58;;;;;;;0.55;0.13;;;19.60;44.10;;;;;;5050208;28;20563;-73
2020/12/21 12:04:23;;;;;;;0.20;0.20;;;19.60;44.10;;;;;;5031818;28;20047;-74
2020/12/21 12:06:52;;;;;;;0.73;0.20;;;19.60;43.90;;;;;;5038357;28;20497;-74
2020/12/21 12:09:18;;;;;;;0.30;0.20;;;19.60;44.00;;;;;;5032952;28;20026;-75
2020/12/21 12:11:44;;;;;;;0.63;0.20;;;19.60;44.10;;;;;;5054441;28;20025;-74
2020/12/21 12:14:09;;;;;;;0.38;0.32;;;19.60;44.20;;;;;;5069112;28;20093;-74
2020/12/21 12:16:52;;;;;;;0.10;0.10;;;19.60;44.20;;;;;;5017325;28;20059;-74
2020/12/21 12:19:22;;;;;;;2.22;0.22;;;19.60;44.30;;;;;;5040599;28;20110;-74
2020/12/21 12:21:48;;;;;;;1.65;0.20;;;19.60;44.30;;;;;;5040444;28;20147;-75
2020/12/21 12:24:14;;;;;;;0.25;0.20;;;19.60;44.20;;;;;;5034501;28;20400;-74
2020/12/21 12:26:39;;;;;;;0.17;0.10;;;19.60;44.20;;;;;;5046991;28;20033;-75
2020/12/21 12:29:05;;;;;;;0.45;0.20;;;19.60;44.40;;;;;;5049714;28;20033;-75
2020/12/21 12:31:30;;;;;;;1.02;0.20;;;19.60;44.40;;;;;;5037061;28;20041;-74
2020/12/21 12:33:56;;;;;;;0.75;0.43;;;19.60;44.50;;;;;;5031898;28;20029;-74
2020/12/21 12:36:34;;;;;;;0.50;0.30;;;19.60;44.50;;;;;;5036546;28;20083;-73
2020/12/21 12:38:59;;;;;;;1.77;0.22;;;19.50;44.50;;;;;;5057541;28;20082;-74
2020/12/21 12:41:25;;;;;;;0.22;0.20;;;19.50;44.60;;;;;;5046399;28;20041;-72
2020/12/21 12:43:51;;;;;;;0.32;0.30;;;19.50;44.70;;;;;;5037711;28;20124;-74
2020/12/21 12:46:16;;;;;;;0.05;0.05;;;19.50;44.70;;;;;;5034762;28;20037;-74
2020/12/21 12:48:42;;;;;;;0.15;0.10;;;19.50;44.80;;;;;;5031902;28;20492;-74
2020/12/21 12:51:26;;;;;;;0.68;0.15;;;19.50;44.90;;;;;;5032039;28;20036;-75
2020/12/21 12:53:51;;;;;;;1.70;0.20;;;19.50;44.80;;;;;;5030193;28;20025;-74
2020/12/21 12:56:17;;;;;;;0.63;0.20;;;19.60;44.90;;;;;;5053022;28;20523;-74
2020/12/21 12:58:43;;;;;;;0.73;0.20;;;19.50;44.90;;;;;;5051583;28;20021;-75
2020/12/21 13:01:08;;;;;;;2.10;0.30;;;19.50;44.90;;;;;;5034681;28;20100;-75
2020/12/21 13:03:34;;;;;;;0.80;0.30;;;19.50;45.00;;;;;;5052652;28;20570;-73
2020/12/21 13:06:00;;;;;;;0.30;0.30;;;19.50;45.00;;;;;;5034637;28;20144;-72
2020/12/21 13:08:25;;;;;;;0.22;0.20;;;19.50;45.00;;;;;;5027980;28;20117;-73
2020/12/21 13:10:51;;;;;;;0.38;0.25;;;19.50;45.00;;;;;;5032224;28;20032;-72